Time;durP1;ratioP1;P1;durP2;ratioP2;P2;SDS_P1;SDS_P2;PMS_P1;PMS_P2;Temp;Humidity;BMP_temperature;BMP_pressure;BME280_temperature;BME280_humidity;BME280_pressure;Samples;Min_cycle;Max_cycle;Signal;HPM_P1;HPM_P2
2023/06/23 00:04:10;;;;;;;4.47;1.67;;;;;;;15.71;60.83;100564.34;10458420;28;20510;-67
2023/06/23 00:09:13;;;;;;;8.57;2.10;;;;;;;15.76;60.66;100561.88;10457276;28;20048;-67
2023/06/23 00:14:14;;;;;;;7.53;2.10;;;;;;;15.81;60.96;100566.66;10456692;28;20120;-67
2023/06/23 00:19:16;;;;;;;5.53;2.20;;;;;;;15.87;60.98;100565.88;10457336;28;20135;-67
2023/06/23 00:24:17;;;;;;;6.40;2.47;;;;;;;15.67;61.10;100565.72;10457083;28;20037;-67
2023/06/23 00:29:17;;;;;;;8.05;2.17;;;;;;;15.19;60.98;100486.09;10457488;28;20557;-67
2023/06/23 00:34:18;;;;;;;6.05;2.00;;;;;;;15.64;61.49;100558.88;10457789;28;20059;-67
2023/06/23 00:39:19;;;;;;;4.93;1.83;;;;;;;15.66;61.66;100566.75;10456919;28;20496;-67
2023/06/23 00:44:19;;;;;;;4.97;2.10;;;;;;;15.54;62.17;100542.34;10456336;28;20076;-67
2023/06/23 00:49:20;;;;;;;4.13;2.00;;;;;;;15.48;62.25;100524.41;10456884;28;20060;-67
2023/06/23 00:54:28;;;;;;;9.52;2.30;;;;;;;15.65;62.20;100557.88;10454861;28;20049;-67
2023/06/23 00:59:29;;;;;;;4.53;1.90;;;;;;;15.50;62.25;100551.81;10455725;28;20051;-67
2023/06/23 01:04:34;;;;;;;8.68;2.15;;;;;;;15.56;62.63;100566.28;10456236;28;20052;-67
2023/06/23 01:10:02;;;;;;;11.75;3.13;;;;;;;15.23;64.31;100498.09;10456066;28;20036;-68
2023/06/23 01:15:13;;;;;;;4.72;2.15;;;;;;;15.52;62.83;100560.47;10455732;28;20048;-69
2023/06/23 01:20:21;;;;;;;9.27;2.55;;;;;;;14.93;62.72;100473.34;10455260;28;20033;-67
2023/06/23 01:25:37;;;;;;;10.48;1.98;;;;;;;15.09;63.30;100511.56;10454625;28;20033;-67
2023/06/23 01:30:43;;;;;;;6.30;2.28;;;;;;;15.50;63.08;100587.44;10455326;28;20051;-67
2023/06/23 01:35:51;;;;;;;10.27;2.60;;;;;;;15.11;64.04;100512.19;10454710;28;20043;-67
2023/06/23 01:40:55;;;;;;;17.75;2.95;;;;;;;15.29;64.19;100539.31;10454333;28;20040;-68
2023/06/23 01:46:03;;;;;;;12.38;2.60;;;;;;;15.73;65.18;100605.97;10478172;28;20047;-67
2023/06/23 01:51:05;;;;;;;28.35;3.40;;;;;;;15.61;65.45;100595.94;10496542;28;20084;-67
2023/06/23 01:56:08;;;;;;;10.80;2.70;;;;;;;15.47;65.83;100574.44;10489218;28;20048;-67
2023/06/23 02:01:11;;;;;;;8.35;2.42;;;;;;;15.70;66.46;100608.19;10473437;28;20041;-67
2023/06/23 02:06:13;;;;;;;10.35;3.08;;;;;;;15.85;65.68;100616.97;10454340;28;20033;-67
2023/06/23 02:11:15;;;;;;;4.82;2.45;;;;;;;15.82;65.98;100608.50;10454140;28;20080;-67
2023/06/23 02:16:16;;;;;;;11.20;2.75;;;;;;;16.16;66.42;100626.44;10454670;28;20069;-67
2023/06/23 02:21:17;;;;;;;13.73;2.65;;;;;;;16.34;66.68;100618.69;10453849;28;20076;-68
2023/06/23 02:26:19;;;;;;;9.63;5.28;;;;;;;16.93;72.23;100627.19;10454598;28;20061;-67
2023/06/23 02:31:23;;;;;;;10.18;5.43;;;;;;;17.38;79.06;100630.13;10453311;28;20492;-68
2023/06/23 02:36:27;;;;;;;;;;;;;;;17.97;84.83;100635.50;10454315;28;20045;-67
2023/06/23 02:41:32;;;;;;;13.23;7.05;;;;;;;18.47;86.43;100634.97;10453050;28;20474;-67
2023/06/23 02:46:38;;;;;;;16.20;3.50;;;;;;;18.20;80.60;100647.69;10451527;28;20104;-67
2023/06/23 02:51:41;;;;;;;10.85;3.25;;;;;;;17.63;76.66;100571.28;10463986;28;20053;-67
2023/06/23 02:56:44;;;;;;;8.43;3.17;;;;;;;17.90;75.36;100623.13;10496605;28;20046;-68
2023/06/23 03:01:48;;;;;;;10.73;3.10;;;;;;;18.06;74.82;100656.81;10502473;28;20037;-67
2023/06/23 03:06:50;;;;;;;9.82;2.85;;;;;;;17.51;74.98;100577.25;10502137;28;20049;-67
2023/06/23 03:11:50;;;;;;;11.07;3.33;;;;;;;18.14;73.52;100570.56;10500149;28;20454;-67
2023/06/23 03:17:06;;;;;;;6.30;3.05;;;;;;;18.39;74.63;100586.78;10464111;28;20090;-67
2023/06/23 03:22:14;;;;;;;7.20;3.55;;;;;;;18.95;74.73;100656.13;10458509;28;20041;-66
2023/06/23 03:27:15;;;;;;;17.80;4.78;;;;;;;19.33;72.88;100653.38;10458860;28;20037;-66
2023/06/23 03:32:26;;;;;;;7.38;3.47;;;;;;;19.33;75.31;100663.34;10460311;28;20091;-66
2023/06/23 03:37:30;;;;;;;10.93;3.90;;;;;;;19.31;75.20;100646.56;10455917;28;20036;-69
2023/06/23 03:42:36;;;;;;;13.23;4.50;;;;;;;19.56;75.32;100658.22;10452211;28;20706;-68
2023/06/23 03:47:40;;;;;;;9.77;3.45;;;;;;;19.68;75.61;100644.03;10451974;28;20061;-67
2023/06/23 03:52:43;;;;;;;15.60;3.80;;;;;;;19.96;76.69;100644.41;10452687;28;20140;-68
2023/06/23 03:57:46;;;;;;;8.65;4.22;;;;;;;20.46;79.58;100632.63;10474387;28;20135;-70
2023/06/23 04:02:50;;;;;;;13.80;4.05;;;;;;;20.54;84.53;100577.56;10460356;28;20113;-69
2023/06/23 04:07:52;;;;;;;7.72;3.63;;;;;;;22.05;79.80;100638.38;10456405;28;20037;-67
2023/06/23 04:12:54;;;;;;;10.50;3.83;;;;;;;22.55;77.20;100526.00;10457883;28;20072;-68
2023/06/23 04:17:56;;;;;;;4.75;3.63;;;;;;;23.54;74.15;100489.41;10452413;28;20556;-68
2023/06/23 04:22:59;;;;;;;9.52;3.83;;;;;;;24.84;72.49;100628.13;10456623;28;20053;-68
2023/06/23 04:28:04;;;;;;;4.57;3.03;;;;;;;26.63;66.32;100600.28;10457855;28;20041;-68
2023/06/23 04:33:05;;;;;;;5.80;2.97;;;;;;;27.90;63.73;100630.63;10466460;28;20488;-68
2023/06/23 04:38:11;;;;;;;9.32;3.60;;;;;;;28.50;59.68;100626.06;10455493;28;20044;-68
2023/06/23 04:43:16;;;;;;;6.28;3.03;;;;;;;28.59;59.62;100569.72;10456846;28;20515;-68
2023/06/23 04:48:23;;;;;;;13.13;3.28;;;;;;;29.49;57.18;100625.16;10466353;28;20083;-68
2023/06/23 04:53:30;;;;;;;11.95;3.33;;;;;;;29.69;56.02;100624.19;10491587;28;20072;-69
2023/06/23 04:58:37;;;;;;;7.75;3.40;;;;;;;29.57;54.87;100573.34;10497842;28;20036;-68
2023/06/23 05:03:40;;;;;;;8.38;3.30;;;;;;;29.46;54.82;100609.31;10498143;28;20040;-68
2023/06/23 05:08:44;;;;;;;8.25;3.60;;;;;;;28.71;54.74;100535.75;10496831;28;20053;-68
2023/06/23 05:13:46;;;;;;;5.97;3.05;;;;;;;28.98;54.56;100598.19;10496261;28;20910;-68
2023/06/23 05:18:49;;;;;;;4.50;2.87;;;;;;;28.53;53.61;100565.38;10482299;28;20515;-70
2023/06/23 05:23:53;;;;;;;6.18;3.25;;;;;;;28.44;54.19;100599.88;10489773;28;20048;-69
2023/06/23 05:28:55;;;;;;;7.32;3.33;;;;;;;27.89;55.05;100577.94;10482593;28;20140;-70
2023/06/23 05:33:58;;;;;;;13.03;3.60;;;;;;;27.83;56.53;100583.69;10482273;28;20056;-70
2023/06/23 05:38:59;;;;;;;4.40;2.80;;;;;;;27.12;55.73;100497.28;10484856;28;20063;-69
2023/06/23 05:44:00;;;;;;;4.00;2.50;;;;;;;27.33;55.84;100558.91;10481616;28;20048;-67
2023/06/23 05:49:08;;;;;;;6.85;3.30;;;;;;;27.34;57.30;100546.09;10479357;28;20056;-69
2023/06/23 05:54:11;;;;;;;6.35;3.00;;;;;;;26.79;55.21;100450.41;10480852;28;20446;-69
2023/06/23 05:59:24;;;;;;;9.85;3.10;;;;;;;27.47;56.45;100527.25;10479714;28;20040;-70
2023/06/23 06:04:29;;;;;;;7.25;2.70;;;;;;;27.86;53.15;100553.13;10482292;28;20071;-73
2023/06/23 06:09:32;;;;;;;6.97;2.67;;;;;;;27.86;53.94;100559.38;10481292;28;20032;-72
2023/06/23 06:14:33;;;;;;;;;;;;;;;28.27;53.36;100550.19;10480291;28;20043;-70
2023/06/23 06:19:37;;;;;;;4.50;2.40;;;;;;;28.03;51.94;100529.03;10477962;28;19917;-69
2023/06/23 06:24:39;;;;;;;4.18;2.50;;;;;;;28.10;52.02;100540.47;10482641;28;20039;-70
2023/06/23 06:29:42;;;;;;;8.85;2.85;;;;;;;28.13;51.76;100525.44;10486495;28;20041;-70
2023/06/23 06:34:45;;;;;;;6.95;2.78;;;;;;;28.28;51.48;100535.47;10483832;28;20028;-69
2023/06/23 06:39:47;;;;;;;7.88;2.70;;;;;;;27.77;51.20;100471.75;10493021;28;20518;-70
2023/06/23 06:44:48;;;;;;;8.45;2.60;;;;;;;27.90;48.88;100445.78;10481290;28;20084;-70
2023/06/23 06:49:50;;;;;;;6.30;2.60;;;;;;;27.95;46.89;100447.69;10490623;28;20121;-69
2023/06/23 06:54:52;;;;;;;7.65;2.80;;;;;;;28.68;47.70;100524.28;10495362;28;20075;-70
2023/06/23 06:59:53;;;;;;;22.33;3.43;;;;;;;28.74;46.96;100521.53;10479991;28;20139;-70
2023/06/23 07:04:54;;;;;;;10.20;2.65;;;;;;;28.31;45.22;100469.34;10480500;28;20033;-69
2023/06/23 07:09:54;;;;;;;3.53;2.20;;;;;;;28.58;44.59;100531.75;10482426;28;20041;-70
2023/06/23 07:14:55;;;;;;;5.47;2.47;;;;;;;28.43;43.86;100519.00;10491134;28;20511;-68
2023/06/23 07:19:56;;;;;;;17.92;2.72;;;;;;;28.41;44.58;100502.06;10488448;28;20048;-69
2023/06/23 07:24:57;;;;;;;9.15;2.53;;;;;;;28.44;42.69;100442.19;10488078;28;20146;-71
2023/06/23 07:29:58;;;;;;;7.25;2.65;;;;;;;28.97;42.65;100500.84;10480523;28;20032;-68
2023/06/23 07:34:59;;;;;;;8.82;2.67;;;;;;;29.09;41.63;100493.91;10485280;28;20076;-69
2023/06/23 07:39:59;;;;;;;6.07;2.53;;;;;;;29.46;41.18;100491.63;10488613;28;20068;-68
2023/06/23 07:45:00;;;;;;;9.23;2.58;;;;;;;29.86;40.52;100478.59;10489378;28;20044;-69
2023/06/23 07:50:01;;;;;;;15.10;2.53;;;;;;;29.85;40.30;100472.28;10483222;28;20052;-68
2023/06/23 07:55:02;;;;;;;7.55;2.60;;;;;;;28.93;40.34;100465.06;10487030;28;20500;-68
2023/06/23 08:00:04;;;;;;;5.70;2.42;;;;;;;28.39;40.50;100401.25;10478869;28;20089;-68
2023/06/23 08:05:05;;;;;;;21.55;3.25;;;;;;;29.18;40.15;100444.06;10478096;28;20040;-69
2023/06/23 08:10:06;;;;;;;4.82;2.38;;;;;;;29.65;38.75;100447.94;10488458;28;20487;-69
2023/06/23 08:15:07;;;;;;;4.13;2.40;;;;;;;29.79;37.70;100432.38;10488197;28;20478;-68
2023/06/23 08:20:09;;;;;;;4.28;2.58;;;;;;;29.74;37.19;100449.72;10487203;28;20075;-68
2023/06/23 08:25:09;;;;;;;5.82;2.70;;;;;;;29.68;38.20;100411.75;10489047;28;20067;-67
2023/06/23 08:30:11;;;;;;;8.63;2.50;;;;;;;30.20;38.67;100440.88;10487638;28;20080;-66
2023/06/23 08:35:12;;;;;;;5.22;2.50;;;;;;;30.36;37.02;100435.97;10483667;28;20045;-66
2023/06/23 08:40:14;;;;;;;6.60;2.35;;;;;;;30.52;37.25;100444.78;10475664;28;20131;-68
2023/06/23 08:45:18;;;;;;;5.20;2.55;;;;;;;29.90;36.32;100411.16;10488962;28;20033;-67
2023/06/23 08:50:20;;;;;;;18.58;3.45;;;;;;;30.37;37.03;100412.13;10487783;28;20498;-66
2023/06/23 08:55:21;;;;;;;37.10;3.35;;;;;;;30.65;36.30;100426.75;10486792;28;20059;-67
2023/06/23 09:00:22;;;;;;;7.05;2.97;;;;;;;30.96;35.80;100442.69;10477114;28;20051;-66
2023/06/23 09:05:23;;;;;;;5.82;2.53;;;;;;;30.78;34.39;100425.13;10488191;28;20106;-67
2023/06/23 09:10:24;;;;;;;28.05;4.63;;;;;;;30.97;34.69;100417.72;10477820;28;20037;-67
2023/06/23 09:15:26;;;;;;;5.75;2.85;;;;;;;31.11;34.97;100413.06;10476405;28;20040;-67
2023/06/23 09:20:30;;;;;;;15.20;2.85;;;;;;;30.99;34.95;100357.84;10481197;28;20536;-67
2023/06/23 09:25:42;;;;;;;27.10;4.25;;;;;;;31.42;35.55;100408.91;10481971;28;20040;-68
2023/06/23 09:30:43;;;;;;;29.33;3.53;;;;;;;31.44;34.14;100366.31;10475639;28;20115;-67
2023/06/23 09:35:48;;;;;;;25.23;2.92;;;;;;;31.47;34.70;100397.81;10482963;28;20158;-68
2023/06/23 09:41:02;;;;;;;10.48;2.95;;;;;;;31.60;33.61;100399.75;10481144;28;20048;-68
2023/06/23 09:46:06;;;;;;;12.55;3.05;;;;;;;31.05;33.17;100306.44;10475408;28;20535;-68
2023/06/23 09:51:07;;;;;;;8.52;2.53;;;;;;;31.74;32.82;100391.47;10454091;28;20092;-68
2023/06/23 09:56:20;;;;;;;5.15;2.40;;;;;;;31.67;31.01;100367.16;10476547;28;20079;-67
2023/06/23 10:01:21;;;;;;;4.93;2.40;;;;;;;31.90;31.36;100373.56;10495727;28;20510;-67
2023/06/23 10:06:23;;;;;;;8.05;2.58;;;;;;;31.84;30.46;100364.59;10485970;28;20041;-67
2023/06/23 10:11:32;;;;;;;8.57;2.92;;;;;;;31.30;31.14;100374.53;10492780;28;20091;-67
2023/06/23 10:16:34;;;;;;;15.30;3.05;;;;;;;31.02;31.73;100361.91;10494558;28;20082;-67
2023/06/23 10:21:35;;;;;;;;;;;;;;;31.60;31.37;100361.28;10496384;28;20048;-67
2023/06/23 10:26:37;;;;;;;6.22;2.40;;;;;;;31.27;31.36;100311.22;10481562;28;19917;-67
2023/06/23 10:31:41;;;;;;;30.07;3.57;;;;;;;31.37;31.77;100343.94;10452672;28;20405;-67
2023/06/23 10:36:43;;;;;;;9.48;2.83;;;;;;;31.54;30.54;100354.28;10452184;28;20055;-67
2023/06/23 10:41:47;;;;;;;11.20;4.30;;;;;;;31.76;30.17;100356.25;10453331;28;20072;-67
2023/06/23 10:46:48;;;;;;;11.00;3.10;;;;;;;30.60;30.65;100260.38;10455164;28;20451;-68
2023/06/23 10:51:50;;;;;;;9.05;3.33;;;;;;;30.34;31.38;100350.53;10484215;28;20512;-68
2023/06/23 10:56:52;;;;;;;5.30;2.65;;;;;;;30.42;30.71;100347.09;10480934;28;20193;-67
2023/06/23 11:02:07;;;;;;;4.47;2.65;;;;;;;30.81;30.36;100339.56;10472501;28;20041;-68
2023/06/23 11:07:12;;;;;;;15.57;7.22;;;;;;;30.80;30.01;100272.13;10478607;28;20044;-67
2023/06/23 11:12:42;;;;;;;14.98;4.65;;;;;;;31.56;30.15;100330.91;10488823;28;20052;-69
2023/06/23 11:17:50;;;;;;;7.05;2.70;;;;;;;31.57;29.77;100312.50;10471320;28;20102;-68
2023/06/23 11:23:08;;;;;;;6.78;2.83;;;;;;;31.73;29.78;100316.50;10469705;28;20044;-69
2023/06/23 11:28:38;;;;;;;11.95;3.08;;;;;;;31.84;29.76;100315.13;10475494;28;20045;-70
2023/06/23 11:33:59;;;;;;;7.38;2.42;;;;;;;32.07;29.75;100301.44;10494614;28;20048;-68
2023/06/23 11:39:00;;;;;;;15.38;3.72;;;;;;;31.95;29.45;100293.78;10497234;28;20040;-67
2023/06/23 11:44:03;;;;;;;28.17;7.60;;;;;;;31.83;29.19;100308.03;10480580;28;20045;-67
2023/06/23 11:49:10;;;;;;;;;;;;;;;31.91;29.85;100309.22;10471118;28;20057;-65
2023/06/23 11:54:11;;;;;;;8.18;3.25;;;;;;;31.73;28.90;100312.94;10476356;28;19920;-67
2023/06/23 11:59:14;;;;;;;9.30;3.40;;;;;;;31.59;28.48;100304.72;10491749;28;20492;-67
2023/06/23 12:04:20;;;;;;;;;;;;;;;31.97;28.16;100302.50;10473809;28;20084;-68
2023/06/23 12:09:20;;;;;;;9.07;2.45;;;;;;;31.87;28.52;100282.69;10457237;28;19959;-69
2023/06/23 12:14:33;;;;;;;8.30;2.47;;;;;;;32.11;30.31;100296.94;10458198;28;20094;-70
2023/06/23 12:19:35;;;;;;;6.22;2.65;;;;;;;32.11;28.39;100285.16;10469450;28;20045;-68
2023/06/23 12:24:35;;;;;;;17.87;2.97;;;;;;;31.76;28.55;100227.19;10457680;28;20037;-68
2023/06/23 12:29:37;;;;;;;17.02;3.08;;;;;;;31.91;28.82;100290.00;10466688;28;20044;-68
2023/06/23 12:34:45;;;;;;;17.60;3.50;;;;;;;31.95;28.55;100273.69;10490692;28;20068;-68
2023/06/23 12:39:53;;;;;;;8.88;3.05;;;;;;;32.05;28.43;100293.50;10466318;28;20049;-68
2023/06/23 12:44:54;;;;;;;9.63;3.38;;;;;;;31.97;28.79;100286.00;10468754;28;20052;-67
2023/06/23 12:50:06;;;;;;;11.73;2.50;;;;;;;31.74;28.05;100271.44;10467603;28;20057;-68
2023/06/23 12:55:07;;;;;;;14.52;3.00;;;;;;;31.84;28.41;100284.94;10473161;28;20091;-68
2023/06/23 13:00:09;;;;;;;7.53;3.15;;;;;;;31.57;28.08;100236.41;10473343;28;20519;-67
2023/06/23 13:05:10;;;;;;;9.02;2.90;;;;;;;31.52;28.54;100216.50;10484943;28;20484;-68
2023/06/23 13:10:11;;;;;;;13.15;2.92;;;;;;;32.02;28.36;100272.16;10477040;28;20044;-71
2023/06/23 13:15:12;;;;;;;7.93;3.00;;;;;;;32.10;28.44;100273.34;10472673;28;20051;-69
2023/06/23 13:20:13;;;;;;;7.13;2.85;;;;;;;32.21;28.47;100279.38;10473818;28;20051;-68
2023/06/23 13:25:14;;;;;;;22.13;3.67;;;;;;;32.13;27.92;100266.38;10471363;28;20045;-68
2023/06/23 13:30:15;;;;;;;9.25;3.05;;;;;;;32.19;28.04;100265.97;10467167;28;20566;-68
2023/06/23 13:35:16;;;;;;;11.68;3.67;;;;;;;31.98;27.65;100251.09;10456432;28;20044;-67
2023/06/23 13:40:16;;;;;;;6.72;2.25;;;;;;;31.68;27.52;100203.22;10471284;28;20083;-68
2023/06/23 13:45:17;;;;;;;14.40;3.35;;;;;;;31.85;28.07;100263.75;10495764;28;20376;-68
2023/06/23 13:50:18;;;;;;;8.93;3.03;;;;;;;31.28;27.41;100181.09;10494693;28;20056;-68
2023/06/23 13:55:21;;;;;;;29.52;4.15;;;;;;;31.40;28.01;100177.81;10496378;28;20052;-67
2023/06/23 14:00:22;;;;;;;6.97;2.55;;;;;;;31.89;27.58;100241.97;10483848;28;20056;-68
2023/06/23 14:05:23;;;;;;;10.77;3.20;;;;;;;31.72;27.45;100248.16;10471588;28;20048;-67
2023/06/23 14:10:24;;;;;;;12.75;2.70;;;;;;;31.34;27.12;100237.47;10452678;28;20045;-67
2023/06/23 14:15:25;;;;;;;15.27;3.10;;;;;;;31.33;27.24;100247.66;10480906;28;20036;-71
2023/06/23 14:20:26;;;;;;;10.35;2.80;;;;;;;31.45;27.81;100241.66;10491371;28;20411;-69
2023/06/23 14:25:26;;;;;;;11.00;2.92;;;;;;;31.49;27.56;100230.84;10487712;28;20098;-66
2023/06/23 14:30:28;;;;;;;9.30;3.20;;;;;;;31.55;27.74;100246.09;10453120;28;20041;-68
2023/06/23 14:35:28;;;;;;;7.53;2.92;;;;;;;31.45;27.46;100238.09;10453862;28;20082;-69
2023/06/23 14:40:29;;;;;;;8.30;2.80;;;;;;;31.09;27.02;100194.97;10452587;28;20040;-68
2023/06/23 14:45:36;;;;;;;15.98;2.95;;;;;;;31.32;27.63;100259.75;10459799;28;20040;-68
2023/06/23 14:50:37;;;;;;;10.07;2.70;;;;;;;30.82;27.62;100196.66;10461172;28;20555;-68
2023/06/23 14:55:39;;;;;;;15.88;2.60;;;;;;;31.02;27.72;100249.44;10461001;28;20033;-68
2023/06/23 15:00:40;;;;;;;24.13;4.10;;;;;;;30.95;27.63;100252.59;10461275;28;20051;-70
2023/06/23 15:05:41;;;;;;;19.92;3.78;;;;;;;30.71;27.39;100239.88;10459836;28;20047;-68
2023/06/23 15:10:42;;;;;;;13.65;2.95;;;;;;;30.56;28.12;100234.72;10460400;28;20033;-68
2023/06/23 15:15:43;;;;;;;8.63;2.95;;;;;;;30.55;28.19;100246.00;10460592;28;20480;-68
2023/06/23 15:20:43;;;;;;;11.88;3.13;;;;;;;30.50;28.01;100232.38;10460678;28;20045;-68
2023/06/23 15:25:44;;;;;;;8.65;3.10;;;;;;;30.48;28.38;100249.13;10460478;28;20040;-68
2023/06/23 15:30:45;;;;;;;21.40;3.53;;;;;;;30.16;28.69;100245.31;10459058;28;20098;-68
2023/06/23 15:35:46;;;;;;;16.00;4.15;;;;;;;30.08;29.12;100262.41;10459793;28;20037;-68
2023/06/23 15:40:47;;;;;;;23.15;4.45;;;;;;;29.93;29.08;100259.94;10460000;28;20049;-68
2023/06/23 15:45:48;;;;;;;25.55;8.52;;;;;;;29.66;29.58;100238.75;10460082;28;20041;-68
2023/06/23 15:50:51;;;;;;;27.42;13.05;;;;;;;29.42;29.67;100247.84;10457946;28;20114;-68
2023/06/23 15:55:52;;;;;;;27.00;8.32;;;;;;;29.24;30.13;100262.31;10457931;28;20052;-68
2023/06/23 16:00:53;;;;;;;88.82;11.20;;;;;;;28.99;31.43;100256.06;10458800;28;20041;-68
2023/06/23 16:05:56;;;;;;;20.38;5.20;;;;;;;28.69;31.04;100249.03;10457205;28;20397;-68
2023/06/23 16:10:57;;;;;;;11.60;4.25;;;;;;;28.38;30.88;100235.66;10458054;28;20523;-68
2023/06/23 16:15:57;;;;;;;24.83;5.38;;;;;;;28.32;30.93;100264.13;10457786;28;20051;-67
2023/06/23 16:20:59;;;;;;;25.60;8.27;;;;;;;27.63;31.55;100203.28;10458138;28;20037;-67
2023/06/23 16:26:00;;;;;;;67.57;38.78;;;;;;;26.97;32.18;100141.81;10457219;28;20102;-68
2023/06/23 16:31:00;;;;;;;58.72;32.95;;;;;;;27.47;32.53;100273.53;10457760;28;20563;-68
2023/06/23 16:36:04;;;;;;;56.50;23.35;;;;;;;26.81;33.79;100219.31;10457476;28;20567;-67
2023/06/23 16:41:05;;;;;;;24.02;13.52;;;;;;;26.97;33.26;100272.66;10457179;28;20045;-67
2023/06/23 16:46:06;;;;;;;34.25;18.48;;;;;;;26.78;33.94;100274.38;10457316;28;20068;-68
2023/06/23 16:51:07;;;;;;;40.20;20.27;;;;;;;26.64;33.47;100274.13;10457429;28;20061;-68
2023/06/23 16:56:09;;;;;;;43.30;20.25;;;;;;;26.07;33.82;100204.50;10457269;28;20041;-68
2023/06/23 17:01:11;;;;;;;21.43;11.50;;;;;;;26.31;34.14;100273.63;10454757;28;20572;-68
2023/06/23 17:06:12;;;;;;;33.45;6.78;;;;;;;26.12;34.47;100273.38;10455569;28;20445;-67
2023/06/23 17:11:14;;;;;;;24.73;6.00;;;;;;;25.93;34.73;100289.41;10455865;28;20124;-68
2023/06/23 17:16:15;;;;;;;16.60;6.32;;;;;;;25.34;35.33;100219.13;10456033;28;20041;-68
2023/06/23 17:21:15;;;;;;;13.50;3.65;;;;;;;25.64;35.25;100274.66;10457556;28;20041;-68
2023/06/23 17:26:16;;;;;;;21.92;3.05;;;;;;;25.53;35.06;100286.63;10466948;28;20045;-68
2023/06/23 17:31:17;;;;;;;12.93;2.88;;;;;;;25.38;35.25;100290.91;10482426;28;20051;-68
2023/06/23 17:36:18;;;;;;;9.00;2.40;;;;;;;25.34;35.38;100299.88;10488860;28;20045;-68
2023/06/23 17:41:19;;;;;;;9.05;2.47;;;;;;;25.30;35.47;100310.47;10453753;28;20049;-68
2023/06/23 17:46:22;;;;;;;11.43;2.80;;;;;;;24.70;35.24;100228.38;10454329;28;20037;-68
2023/06/23 17:51:23;;;;;;;21.27;3.10;;;;;;;25.00;35.25;100289.38;10455520;28;20061;-68
2023/06/23 17:56:24;;;;;;;42.17;3.92;;;;;;;24.93;35.33;100294.25;10454497;28;20283;-67
2023/06/23 18:01:25;;;;;;;24.80;3.13;;;;;;;24.73;35.92;100278.66;10461247;28;20101;-68
2023/06/23 18:06:25;;;;;;;26.25;3.50;;;;;;;24.72;35.75;100286.00;10495624;28;20466;-67
2023/06/23 18:11:26;;;;;;;20.90;3.42;;;;;;;24.60;35.88;100267.19;10494042;28;20050;-68
2023/06/23 18:16:27;;;;;;;26.48;3.10;;;;;;;24.76;35.64;100297.13;10489819;28;20110;-68
2023/06/23 18:21:28;;;;;;;13.63;2.90;;;;;;;24.64;36.01;100285.66;10474951;28;20389;-67
2023/06/23 18:26:29;;;;;;;25.77;3.47;;;;;;;24.60;35.75;100291.63;10462638;28;20553;-68
2023/06/23 18:31:30;;;;;;;21.67;3.28;;;;;;;24.51;36.31;100287.75;10462362;28;20136;-68
2023/06/23 18:36:31;;;;;;;20.52;3.60;;;;;;;24.45;36.51;100286.09;10462666;28;20124;-67
2023/06/23 18:41:33;;;;;;;24.13;3.40;;;;;;;23.94;37.21;100220.56;10466809;28;20040;-68
2023/06/23 18:46:34;;;;;;;24.67;3.35;;;;;;;24.12;38.21;100290.72;10500410;28;20051;-68
2023/06/23 18:51:35;;;;;;;13.90;2.53;;;;;;;23.97;38.51;100293.28;10501237;28;20062;-68
2023/06/23 18:56:36;;;;;;;9.00;3.03;;;;;;;23.90;38.51;100281.81;10502980;28;20524;-69
2023/06/23 19:01:37;;;;;;;17.25;3.22;;;;;;;24.01;39.49;100282.75;10502848;28;20041;-67
2023/06/23 19:06:37;;;;;;;27.27;3.50;;;;;;;23.98;40.52;100284.06;10502420;28;20495;-67
2023/06/23 19:11:38;;;;;;;17.27;3.65;;;;;;;23.86;41.38;100275.28;10484445;28;20051;-69
2023/06/23 19:16:39;;;;;;;11.43;3.38;;;;;;;23.71;42.66;100273.25;10460550;28;20139;-68
2023/06/23 19:21:41;;;;;;;15.98;3.35;;;;;;;23.57;43.70;100275.53;10469273;28;20045;-67
2023/06/23 19:26:41;;;;;;;20.50;4.07;;;;;;;23.44;44.96;100279.44;10489575;28;20127;-68
2023/06/23 19:31:42;;;;;;;11.63;3.67;;;;;;;23.27;46.19;100276.00;10469935;28;20123;-68
2023/06/23 19:36:43;;;;;;;18.67;3.15;;;;;;;23.22;47.76;100282.19;10459266;28;20052;-68
2023/06/23 19:41:45;;;;;;;9.32;3.45;;;;;;;22.82;48.69;100227.47;10459028;28;20045;-69
2023/06/23 19:46:46;;;;;;;11.88;3.35;;;;;;;23.12;49.95;100287.47;10459150;28;20040;-68
2023/06/23 19:51:49;;;;;;;12.95;3.33;;;;;;;22.97;50.38;100276.44;10458834;28;20096;-68
2023/06/23 19:56:50;;;;;;;9.40;3.40;;;;;;;23.04;51.05;100306.91;10459801;28;20046;-68
2023/06/23 20:01:51;;;;;;;18.15;3.70;;;;;;;22.95;51.72;100308.41;10458889;28;20045;-68
2023/06/23 20:06:52;;;;;;;15.18;3.50;;;;;;;22.89;52.19;100309.38;10458757;28;20086;-67
2023/06/23 20:11:53;;;;;;;10.63;3.35;;;;;;;22.69;52.78;100288.25;10458678;28;20041;-67
2023/06/23 20:16:54;;;;;;;7.03;3.05;;;;;;;22.66;52.89;100289.56;10458473;28;20508;-67
2023/06/23 20:21:54;;;;;;;7.22;3.03;;;;;;;22.09;53.50;100214.81;10458181;28;20052;-67
2023/06/23 20:26:55;;;;;;;11.68;3.40;;;;;;;22.59;53.55;100299.75;10460510;28;20064;-68
2023/06/23 20:31:56;;;;;;;11.18;3.35;;;;;;;22.24;54.32;100271.06;10465995;28;20098;-67
2023/06/23 20:36:57;;;;;;;28.65;3.05;;;;;;;21.92;54.18;100232.09;10457819;28;20045;-67
2023/06/23 20:41:58;;;;;;;5.68;2.95;;;;;;;22.09;54.44;100287.84;10457310;28;20079;-68
2023/06/23 20:46:59;;;;;;;9.15;3.05;;;;;;;22.01;54.62;100304.47;10457286;28;20036;-69
2023/06/23 20:52:00;;;;;;;8.63;3.20;;;;;;;21.50;55.15;100232.47;10457688;28;20109;-67
2023/06/23 20:57:01;;;;;;;4.55;2.50;;;;;;;21.92;55.06;100329.47;10456900;28;20048;-67
2023/06/23 21:02:01;;;;;;;6.32;3.10;;;;;;;21.34;55.45;100250.25;10456526;28;20066;-67
2023/06/23 21:07:03;;;;;;;8.50;2.83;;;;;;;21.76;55.82;100322.97;10456649;28;20414;-68
2023/06/23 21:12:04;;;;;;;8.30;2.65;;;;;;;21.64;56.06;100320.31;10456618;28;20052;-67
2023/06/23 21:17:05;;;;;;;7.95;2.90;;;;;;;21.41;56.22;100311.22;10455487;28;20048;-67
2023/06/23 21:22:06;;;;;;;5.55;2.90;;;;;;;21.46;56.25;100317.81;10455953;28;20090;-68
2023/06/23 21:27:07;;;;;;;6.85;3.00;;;;;;;21.10;56.15;100261.13;10455713;28;20091;-68
2023/06/23 21:32:08;;;;;;;8.23;2.53;;;;;;;21.43;56.21;100329.91;10455506;28;20037;-68
2023/06/23 21:37:08;;;;;;;4.97;2.78;;;;;;;20.36;56.59;100165.63;10455358;28;20048;-68
2023/06/23 21:42:09;;;;;;;9.68;3.00;;;;;;;21.34;56.51;100318.63;10453394;28;20055;-67
2023/06/23 21:47:10;;;;;;;7.53;2.70;;;;;;;21.31;56.64;100321.81;10454479;28;20553;-67
2023/06/23 21:52:11;;;;;;;12.13;2.60;;;;;;;20.75;56.98;100245.00;10455064;28;20505;-67
2023/06/23 21:57:12;;;;;;;5.43;2.70;;;;;;;20.67;57.33;100264.25;10454221;28;20120;-67
2023/06/23 22:02:13;;;;;;;4.93;2.47;;;;;;;20.71;58.45;100306.75;10453979;28;20499;-68
2023/06/23 22:07:14;;;;;;;4.38;2.30;;;;;;;20.63;58.17;100319.78;10453771;28;20119;-70
2023/06/23 22:12:15;;;;;;;6.07;2.85;;;;;;;19.98;58.29;100218.97;10452673;28;20037;-68
2023/06/23 22:17:16;;;;;;;4.38;1.95;;;;;;;20.37;58.32;100300.28;10454086;28;20048;-67
2023/06/23 22:22:17;;;;;;;7.22;2.72;;;;;;;20.60;58.10;100329.16;10463362;28;20496;-67
2023/06/23 22:27:18;;;;;;;4.15;2.35;;;;;;;20.59;58.10;100329.41;10453904;28;20048;-67
2023/06/23 22:32:19;;;;;;;9.65;2.85;;;;;;;20.52;58.62;100335.75;10454182;28;20099;-67
2023/06/23 22:37:20;;;;;;;8.05;2.70;;;;;;;20.38;59.10;100328.06;10453621;28;20041;-67
2023/06/23 22:42:20;;;;;;;6.38;2.78;;;;;;;20.20;59.75;100339.78;10453172;28;20558;-67
2023/06/23 22:47:21;;;;;;;7.50;3.03;;;;;;;19.64;60.58;100262.81;10452880;28;20060;-68
2023/06/23 22:52:26;;;;;;;4.82;2.53;;;;;;;19.89;61.63;100328.19;10453607;28;20047;-68
2023/06/23 22:57:27;;;;;;;5.63;2.80;;;;;;;19.47;62.47;100322.72;10454116;28;20049;-68
2023/06/23 23:02:28;;;;;;;6.32;3.13;;;;;;;19.43;62.76;100329.63;10452830;28;20045;-67
2023/06/23 23:07:29;;;;;;;6.43;2.80;;;;;;;19.54;62.86;100339.63;10460797;28;20075;-67